CheckWX is a tool to help pilots better visualize weather data.  It is not intended as a substitute for an official pre-flight weather briefing.

02:50:32 UTC

ETNN METAR
Norvenich Airport
Germany
Current

31 mins ago

ETNN 240220Z 01004KT 5000 BR SCT010 OVC040 08/07 Q1028 WHT
Observed
Mar-24 @ 02:20 UTC
Wind
  • 010° at 4 KTS
Visibility
5,005 meters
Flight Rules
MVFR
Conditions
Mist
Cloud Levels
  • Scattered at 1,000' AGL
  • Overcast at 4,000' AGL
Temperature
C / 46°F
Dewpoint
C / 45°F
Humidity
93%
Altimeter
30.35" Hg
Pressure
1027.92 hPa
Previous

2 hours ago

ETNN 240120Z 34002KT 4000 BR OVC040 08/07 Q1028 GRN
Observed
Mar-24 @ 01:20 UTC
Wind
  • 340° at 2 KTS
Visibility
4,007 meters
Flight Rules
IFR
Conditions
Mist
Cloud Levels
  • Overcast at 4,000' AGL
Temperature
C / 46°F
Dewpoint
C / 45°F
Humidity
93%
Altimeter
30.35" Hg
Pressure
1027.92 hPa
Previous

3 hours ago

ETNN 240020Z 36003KT 4000 BR OVC040 08/07 Q1029 GRN
Observed
Mar-24 @ 00:20 UTC
Wind
  • 360° at 3 KTS
Visibility
4,007 meters
Flight Rules
IFR
Conditions
Mist
Cloud Levels
  • Overcast at 4,000' AGL
Temperature
C / 46°F
Dewpoint
C / 45°F
Humidity
93%
Altimeter
30.38" Hg
Pressure
1028.91 hPa